Time;durP1;ratioP1;P1;durP2;ratioP2;P2;SDS_P1;SDS_P2;PMS_P1;PMS_P2;Temp;Humidity;BMP_temperature;BMP_pressure;BME280_temperature;BME280_humidity;BME280_pressure;Samples;Min_cycle;Max_cycle;Signal;HPM_P1;HPM_P2
2022/09/24 00:01:45;;;;;;;5.10;3.25;;;11.90;71.30;;;;;;5041733;28;20040;-75
2022/09/24 00:04:11;;;;;;;3.47;3.17;;;11.90;71.40;;;;;;5074062;28;20063;-75
2022/09/24 00:06:44;;;;;;;5.18;3.10;;;11.90;71.40;;;;;;5074566;28;20100;-76
2022/09/24 00:09:12;;;;;;;4.35;3.42;;;11.90;71.60;;;;;;5073489;28;20520;-74
2022/09/24 00:11:38;;;;;;;4.78;3.42;;;11.80;71.70;;;;;;5060935;28;20126;-76
2022/09/24 00:14:05;;;;;;;8.35;3.42;;;11.80;71.70;;;;;;5059513;28;20170;-77
2022/09/24 00:16:32;;;;;;;7.15;3.60;;;11.80;71.90;;;;;;5045187;28;20607;-75
2022/09/24 00:18:58;;;;;;;4.55;3.33;;;11.80;72.00;;;;;;5077930;28;20162;-75
2022/09/24 00:21:28;;;;;;;6.82;3.72;;;11.80;72.10;;;;;;5042038;28;20122;-76
2022/09/24 00:23:55;;;;;;;4.72;3.78;;;11.70;72.20;;;;;;5058145;28;20068;-74
2022/09/24 00:27:03;;;;;;;4.18;3.45;;;11.70;72.20;;;;;;5053334;28;20576;-75
2022/09/24 00:29:10;;;;;;;5.47;3.50;;;11.70;72.30;;;;;;5046892;28;20109;-74
2022/09/24 00:31:36;;;;;;;5.05;3.25;;;11.70;72.40;;;;;;5027111;28;20028;-75
2022/09/24 00:34:01;;;;;;;4.15;3.03;;;11.70;72.50;;;;;;5063302;28;20043;-74
2022/09/24 00:36:27;;;;;;;4.95;2.92;;;11.60;72.50;;;;;;5043569;28;20085;-73
2022/09/24 00:38:54;;;;;;;4.72;3.50;;;11.60;72.50;;;;;;5075731;28;20040;-75
2022/09/24 00:41:21;;;;;;;7.75;3.13;;;11.60;72.70;;;;;;5087892;28;20104;-74
2022/09/24 00:43:47;;;;;;;6.13;3.30;;;11.60;72.70;;;;;;5073421;28;20051;-75
2022/09/24 00:46:15;;;;;;;4.80;3.28;;;11.60;72.80;;;;;;5072256;28;20054;-74
2022/09/24 00:48:41;;;;;;;4.25;3.20;;;11.50;72.80;;;;;;5056782;28;20032;-75
2022/09/24 00:51:07;;;;;;;4.57;3.00;;;11.50;72.90;;;;;;5076051;28;20423;-74
2022/09/24 00:53:33;;;;;;;4.53;3.30;;;11.50;72.90;;;;;;5056687;28;20515;-74
2022/09/24 00:55:59;;;;;;;4.57;3.17;;;11.50;73.10;;;;;;5075531;28;20391;-74
2022/09/24 00:58:25;;;;;;;5.35;3.22;;;11.50;73.10;;;;;;5075464;28;20602;-74
2022/09/24 01:00:57;;;;;;;3.47;3.10;;;11.50;73.10;;;;;;5070988;28;20050;-75
2022/09/24 01:03:23;;;;;;;5.13;3.20;;;11.50;73.40;;;;;;5054184;28;20047;-75
2022/09/24 01:05:48;;;;;;;4.80;3.40;;;11.50;73.40;;;;;;5058942;28;20036;-73
2022/09/24 01:08:15;;;;;;;6.40;3.20;;;11.40;73.30;;;;;;5043539;28;20032;-74
2022/09/24 01:11:14;;;;;;;5.50;3.05;;;11.40;73.40;;;;;;5075038;28;20037;-74
2022/09/24 01:14:09;;;;;;;3.50;3.13;;;11.40;73.90;;;;;;5060921;28;20675;-75
2022/09/24 01:16:42;;;;;;;4.20;2.95;;;11.40;73.80;;;;;;5044777;28;20085;-75
2022/09/24 01:19:18;;;;;;;3.58;3.15;;;11.40;73.80;;;;;;5037983;28;20044;-75
2022/09/24 01:21:56;;;;;;;4.10;3.08;;;11.40;73.80;;;;;;5056422;28;20066;-75
2022/09/24 01:24:25;;;;;;;4.10;3.63;;;11.40;73.80;;;;;;5073601;28;20808;-76
2022/09/24 01:26:59;;;;;;;5.57;3.42;;;11.40;74.00;;;;;;5071307;28;20119;-75
2022/09/24 01:29:43;;;;;;;7.20;3.25;;;11.40;74.10;;;;;;5053286;28;20132;-75
2022/09/24 01:32:28;;;;;;;4.82;3.47;;;11.30;74.00;;;;;;5054203;28;20167;-75
2022/09/24 01:35:02;;;;;;;4.35;3.47;;;11.30;74.20;;;;;;5058246;28;22629;-76
2022/09/24 01:37:28;;;;;;;4.97;3.33;;;11.30;74.20;;;;;;5056132;28;20044;-75
2022/09/24 01:39:54;;;;;;;4.00;3.58;;;11.30;74.20;;;;;;5025804;28;20037;-75
2022/09/24 01:42:20;;;;;;;6.38;3.78;;;11.30;74.30;;;;;;5040936;28;20071;-76
2022/09/24 01:44:45;;;;;;;4.40;3.25;;;11.20;74.40;;;;;;5039094;28;20041;-75
2022/09/24 01:47:18;;;;;;;4.18;3.53;;;11.30;74.50;;;;;;5054703;28;20035;-75
2022/09/24 01:49:44;;;;;;;6.18;3.55;;;11.20;75.60;;;;;;5086840;28;20097;-75
2022/09/24 01:52:12;;;;;;;4.30;3.20;;;11.20;74.60;;;;;;5041419;28;20040;-75
2022/09/24 01:54:41;;;;;;;3.78;3.08;;;11.20;74.80;;;;;;5040248;28;20040;-75
2022/09/24 01:57:17;;;;;;;4.35;3.15;;;11.20;74.90;;;;;;5025925;28;20043;-75
2022/09/24 01:59:55;;;;;;;3.25;2.88;;;11.20;75.20;;;;;;5041306;28;20024;-76
2022/09/24 02:02:26;;;;;;;4.00;3.28;;;11.20;75.00;;;;;;5073564;28;20050;-75
2022/09/24 02:05:13;;;;;;;5.60;3.13;;;11.20;75.00;;;;;;5055791;28;20491;-75
2022/09/24 02:08:02;;;;;;;4.60;3.22;;;11.20;75.00;;;;;;5030693;28;20048;-75
2022/09/24 02:10:29;;;;;;;6.70;3.60;;;11.20;75.10;;;;;;5058849;28;20028;-76
2022/09/24 02:12:58;;;;;;;4.15;3.30;;;11.20;75.10;;;;;;5042571;28;20036;-77
2022/09/24 02:15:29;;;;;;;5.30;3.38;;;11.20;75.20;;;;;;5017402;28;20040;-75
2022/09/24 02:17:56;;;;;;;4.57;3.88;;;11.20;75.30;;;;;;5075648;28;20051;-75
2022/09/24 02:20:22;;;;;;;3.97;3.38;;;11.20;75.20;;;;;;5063578;28;20050;-75
2022/09/24 02:22:48;;;;;;;6.00;3.75;;;11.20;75.40;;;;;;5041401;28;20044;-75
2022/09/24 02:25:17;;;;;;;4.57;3.53;;;11.20;75.50;;;;;;5044281;28;20028;-76
2022/09/24 02:27:42;;;;;;;5.82;3.50;;;11.10;75.60;;;;;;5036715;28;20037;-76
2022/09/24 02:30:09;;;;;;;5.50;3.33;;;11.20;75.60;;;;;;5037718;28;20467;-75
2022/09/24 02:32:35;;;;;;;3.30;3.00;;;11.20;75.70;;;;;;5073546;28;20021;-75
2022/09/24 02:35:03;;;;;;;8.02;3.55;;;11.10;75.60;;;;;;5053371;28;20519;-75
2022/09/24 02:37:33;;;;;;;7.03;3.60;;;11.10;75.70;;;;;;5041282;28;20415;-75
2022/09/24 02:39:58;;;;;;;4.68;3.30;;;11.10;75.80;;;;;;5039721;28;20039;-76
2022/09/24 02:42:24;;;;;;;4.78;3.58;;;11.10;75.80;;;;;;5059466;28;20036;-77
2022/09/24 02:44:50;;;;;;;5.10;3.50;;;11.10;75.90;;;;;;5054814;28;20048;-76
2022/09/24 02:47:15;;;;;;;4.38;3.22;;;11.10;75.90;;;;;;5075394;28;20043;-76
2022/09/24 02:49:41;;;;;;;4.65;3.25;;;11.10;75.90;;;;;;5077099;28;20045;-76
2022/09/24 02:52:06;;;;;;;6.78;3.78;;;11.10;76.00;;;;;;5079319;28;20043;-76
2022/09/24 02:54:32;;;;;;;3.80;3.28;;;11.10;76.10;;;;;;5075547;28;20044;-75
2022/09/24 02:56:57;;;;;;;3.97;3.05;;;11.10;76.10;;;;;;5080344;28;20032;-75
2022/09/24 02:59:23;;;;;;;4.75;3.40;;;11.00;76.10;;;;;;5046315;28;20645;-76
2022/09/24 03:01:49;;;;;;;4.65;3.00;;;11.10;76.20;;;;;;5064530;28;20136;-76
2022/09/24 03:04:14;;;;;;;3.90;3.03;;;11.00;76.20;;;;;;5077798;28;20041;-75
2022/09/24 03:06:40;;;;;;;5.65;3.13;;;11.00;76.30;;;;;;5048390;28;20051;-75
2022/09/24 03:09:05;;;;;;;4.68;3.00;;;11.00;76.30;;;;;;5065698;28;20033;-76
2022/09/24 03:11:31;;;;;;;3.88;3.45;;;11.00;76.40;;;;;;5061271;28;20046;-76
2022/09/24 03:13:58;;;;;;;5.88;3.42;;;11.00;77.20;;;;;;5061465;28;20032;-75
2022/09/24 03:16:23;;;;;;;4.57;3.20;;;11.00;76.60;;;;;;5063156;28;20041;-76
2022/09/24 03:18:49;;;;;;;6.18;3.45;;;11.00;76.50;;;;;;5061109;28;20047;-76
2022/09/24 03:21:16;;;;;;;3.78;3.35;;;11.00;76.50;;;;;;5072883;28;20040;-75
2022/09/24 03:23:41;;;;;;;4.18;3.28;;;11.00;76.60;;;;;;5059901;28;20067;-75
2022/09/24 03:26:07;;;;;;;3.67;3.30;;;11.00;76.80;;;;;;5062214;28;20059;-75
2022/09/24 03:28:33;;;;;;;6.20;4.10;;;11.00;76.80;;;;;;5059898;28;20048;-75
2022/09/24 03:30:58;;;;;;;10.93;4.03;;;10.90;76.80;;;;;;5029675;28;20035;-76
2022/09/24 03:33:34;;;;;;;4.07;3.10;;;10.90;76.80;;;;;;5072866;28;20134;-76
2022/09/24 03:36:06;;;;;;;3.75;2.90;;;10.90;76.80;;;;;;5074318;28;20035;-75
2022/09/24 03:38:31;;;;;;;6.45;3.30;;;10.90;77.00;;;;;;5073527;28;20089;-75
2022/09/24 03:40:57;;;;;;;3.25;2.70;;;10.90;76.90;;;;;;5043995;28;20036;-74
2022/09/24 03:43:23;;;;;;;3.42;2.90;;;10.90;77.00;;;;;;5056111;28;20046;-76
2022/09/24 03:45:48;;;;;;;3.95;3.13;;;10.90;77.10;;;;;;5077215;28;20029;-75
2022/09/24 03:48:15;;;;;;;6.32;3.13;;;10.90;77.10;;;;;;5040856;28;20032;-76
2022/09/24 03:50:41;;;;;;;3.55;2.88;;;10.80;77.10;;;;;;5059783;28;20042;-75
2022/09/24 03:53:06;;;;;;;5.60;3.08;;;10.90;77.10;;;;;;5072589;28;20111;-75
2022/09/24 03:55:32;;;;;;;3.80;3.15;;;10.90;77.20;;;;;;5059366;28;20032;-75
2022/09/24 03:57:58;;;;;;;3.38;2.80;;;10.80;77.10;;;;;;5076898;28;20032;-76
2022/09/24 04:00:23;;;;;;;4.43;3.30;;;10.80;77.20;;;;;;5031029;28;20092;-75
2022/09/24 04:02:49;;;;;;;4.20;2.80;;;10.80;77.20;;;;;;5061123;28;20043;-75
2022/09/24 04:05:15;;;;;;;5.57;3.10;;;10.80;77.20;;;;;;5074883;28;20056;-75
2022/09/24 04:07:42;;;;;;;4.38;2.83;;;10.70;77.20;;;;;;5061898;28;20116;-75
2022/09/24 04:10:08;;;;;;;6.22;3.22;;;10.70;77.30;;;;;;5059750;28;20132;-75
2022/09/24 04:12:33;;;;;;;6.32;3.38;;;10.70;77.30;;;;;;5068421;28;20547;-75
2022/09/24 04:15:01;;;;;;;3.90;3.50;;;10.70;77.20;;;;;;5075526;28;20086;-75
2022/09/24 04:17:30;;;;;;;5.80;3.08;;;10.70;77.30;;;;;;5060659;28;20115;-75
2022/09/24 04:19:56;;;;;;;3.08;2.83;;;10.70;77.40;;;;;;5019079;28;20061;-76
2022/09/24 04:22:22;;;;;;;3.42;3.05;;;10.70;77.50;;;;;;5056099;28;20086;-74
2022/09/24 04:24:47;;;;;;;6.50;3.20;;;10.60;77.40;;;;;;5073322;28;20559;-75
2022/09/24 04:27:13;;;;;;;5.25;3.35;;;10.60;77.40;;;;;;5075082;28;20139;-75
2022/09/24 04:29:39;;;;;;;4.30;3.10;;;10.60;77.50;;;;;;5059857;28;20028;-76
2022/09/24 04:32:04;;;;;;;3.03;2.65;;;10.60;77.50;;;;;;5072103;28;20588;-75
2022/09/24 04:34:30;;;;;;;3.83;2.83;;;10.60;77.50;;;;;;5055595;28;20405;-76
2022/09/24 04:36:55;;;;;;;3.45;2.92;;;10.50;77.50;;;;;;5056682;28;20373;-76
2022/09/24 04:39:25;;;;;;;4.45;2.67;;;10.50;77.60;;;;;;5070809;28;20536;-75
2022/09/24 04:41:51;;;;;;;4.22;3.45;;;10.50;77.60;;;;;;5075628;28;20119;-75
2022/09/24 04:44:16;;;;;;;4.03;3.00;;;10.50;77.60;;;;;;5054600;28;20054;-75
2022/09/24 04:46:42;;;;;;;5.70;3.10;;;10.50;77.70;;;;;;5024076;28;20033;-75
2022/09/24 04:49:08;;;;;;;5.07;3.13;;;10.50;77.80;;;;;;5067219;28;20040;-75
2022/09/24 04:51:34;;;;;;;3.85;3.20;;;10.40;77.80;;;;;;5070072;28;20588;-75
2022/09/24 04:54:01;;;;;;;3.65;2.97;;;10.40;77.80;;;;;;5042534;28;20123;-74
2022/09/24 04:56:27;;;;;;;3.17;2.88;;;10.40;77.90;;;;;;5072887;28;20094;-75
2022/09/24 04:58:53;;;;;;;4.43;3.05;;;10.40;78.00;;;;;;5057395;28;20036;-75
2022/09/24 05:01:19;;;;;;;3.58;3.00;;;10.30;77.90;;;;;;5056486;28;20111;-75
2022/09/24 05:03:45;;;;;;;5.65;3.00;;;10.30;77.90;;;;;;5058222;28;20127;-75
2022/09/24 05:06:11;;;;;;;7.55;3.78;;;10.30;78.00;;;;;;5062966;28;20077;-75
2022/09/24 05:08:36;;;;;;;4.35;3.17;;;10.30;78.00;;;;;;5059746;28;20033;-75
2022/09/24 05:11:02;;;;;;;6.10;3.28;;;10.20;78.00;;;;;;5045591;28;20097;-75
2022/09/24 05:13:27;;;;;;;4.95;3.38;;;10.20;78.00;;;;;;5044291;28;20043;-74
2022/09/24 05:15:53;;;;;;;7.47;4.25;;;10.20;78.10;;;;;;5063077;28;20120;-76
2022/09/24 05:18:18;;;;;;;3.63;3.10;;;10.20;78.10;;;;;;5093258;28;20036;-75
2022/09/24 05:20:44;;;;;;;5.13;2.88;;;10.10;78.10;;;;;;5063189;28;20048;-75
2022/09/24 05:23:09;;;;;;;3.92;3.05;;;10.10;78.10;;;;;;5076412;28;20044;-75
2022/09/24 05:27:07;;;;;;;4.28;3.00;;;10.10;78.20;;;;;;5030976;28;20032;-76
2022/09/24 05:28:20;;;;;;;5.03;2.97;;;10.10;78.20;;;;;;5056478;28;20036;-76
2022/09/24 05:30:46;;;;;;;3.63;3.08;;;10.10;78.20;;;;;;5034072;28;20036;-76
2022/09/24 05:33:12;;;;;;;3.90;3.15;;;10.00;78.10;;;;;;5077153;28;20036;-76
2022/09/24 05:35:38;;;;;;;4.15;3.08;;;10.00;78.20;;;;;;5051682;28;20570;-77
2022/09/24 05:38:03;;;;;;;6.82;3.10;;;10.00;79.00;;;;;;5049575;28;20097;-77
2022/09/24 05:40:47;;;;;;;4.43;3.13;;;10.00;78.30;;;;;;5054879;28;20066;-77
2022/09/24 05:43:13;;;;;;;5.35;3.47;;;10.00;78.50;;;;;;5051971;28;20075;-76
2022/09/24 05:45:38;;;;;;;4.32;3.50;;;9.90;78.30;;;;;;5080402;28;20028;-76
2022/09/24 05:48:04;;;;;;;5.32;3.60;;;9.90;78.40;;;;;;5064802;28;20039;-76
2022/09/24 05:50:31;;;;;;;5.43;3.85;;;9.90;78.40;;;;;;5065851;28;20678;-77
2022/09/24 05:52:57;;;;;;;4.40;3.80;;;9.90;78.50;;;;;;5050520;28;20112;-77
2022/09/24 05:55:23;;;;;;;6.00;3.55;;;9.90;78.60;;;;;;5067321;28;20703;-77
2022/09/24 05:57:48;;;;;;;5.72;3.80;;;9.90;78.60;;;;;;5052507;28;20077;-77
2022/09/24 06:00:14;;;;;;;3.75;3.28;;;9.80;78.70;;;;;;5056137;28;20529;-76
2022/09/24 06:02:39;;;;;;;7.55;5.45;;;9.80;78.70;;;;;;5063037;28;20078;-76
2022/09/24 06:05:05;;;;;;;17.13;10.93;;;9.80;78.80;;;;;;5065324;28;20040;-76
2022/09/24 06:07:31;;;;;;;12.57;7.05;;;9.80;78.90;;;;;;5068404;28;20513;-76
2022/09/24 06:09:58;;;;;;;7.20;5.38;;;9.80;79.00;;;;;;5084713;28;20031;-77
2022/09/24 06:12:24;;;;;;;8.18;4.50;;;9.80;79.10;;;;;;5052434;28;20032;-77
2022/09/24 06:14:49;;;;;;;5.72;4.45;;;9.80;79.20;;;;;;5066662;28;20050;-76
2022/09/24 06:17:15;;;;;;;4.10;3.60;;;9.90;79.30;;;;;;5068550;28;20569;-76
2022/09/24 06:19:40;;;;;;;5.45;4.22;;;9.90;79.40;;;;;;5084255;28;20480;-76
2022/09/24 06:22:06;;;;;;;6.20;4.38;;;9.90;79.50;;;;;;5067970;28;20243;-76
2022/09/24 06:24:31;;;;;;;5.10;4.55;;;9.90;79.60;;;;;;5064063;28;20048;-76
2022/09/24 06:26:57;;;;;;;6.47;3.97;;;9.90;79.70;;;;;;5054480;28;20166;-76
2022/09/24 06:29:23;;;;;;;5.88;4.05;;;10.00;79.70;;;;;;5055989;28;20398;-76
2022/09/24 06:31:48;;;;;;;4.47;3.92;;;10.00;79.70;;;;;;5067436;28;20024;-77
2022/09/24 06:34:14;;;;;;;4.97;4.10;;;10.00;79.70;;;;;;5074429;28;20268;-75
2022/09/24 06:36:40;;;;;;;4.53;3.70;;;10.10;79.80;;;;;;5051076;28;20046;-75
2022/09/24 06:39:06;;;;;;;6.35;4.15;;;10.10;79.90;;;;;;5057384;28;20039;-74
2022/09/24 06:41:32;;;;;;;6.50;5.20;;;10.10;79.80;;;;;;5073919;28;20051;-74
2022/09/24 06:43:57;;;;;;;7.10;5.55;;;10.20;79.90;;;;;;5054743;28;20043;-75
2022/09/24 06:46:24;;;;;;;7.57;5.43;;;10.30;79.90;;;;;;5070496;28;20384;-74
2022/09/24 06:48:50;;;;;;;43.60;19.13;;;10.30;80.00;;;;;;5053509;28;20088;-75
2022/09/24 06:51:16;;;;;;;20.45;11.75;;;10.40;80.00;;;;;;5042990;28;20048;-74
2022/09/24 06:53:41;;;;;;;20.83;11.25;;;10.50;80.10;;;;;;5060419;28;20279;-77
2022/09/24 06:56:07;;;;;;;10.02;6.22;;;10.60;80.20;;;;;;5070785;28;20040;-77
2022/09/24 06:58:35;;;;;;;6.90;4.65;;;10.60;80.20;;;;;;5073270;28;20040;-75
2022/09/24 07:01:01;;;;;;;5.97;4.13;;;10.70;80.20;;;;;;5044409;28;20043;-75
2022/09/24 07:03:28;;;;;;;5.80;4.10;;;10.80;80.20;;;;;;5044673;28;20431;-75
2022/09/24 07:05:54;;;;;;;5.28;4.10;;;10.90;80.20;;;;;;5043511;28;20059;-75
2022/09/24 07:08:19;;;;;;;5.18;4.55;;;11.00;80.20;;;;;;5028857;28;20101;-75
2022/09/24 07:10:47;;;;;;;4.90;4.40;;;11.10;80.20;;;;;;5055578;28;20036;-75
2022/09/24 07:13:13;;;;;;;7.70;4.55;;;11.10;80.20;;;;;;5038773;28;20519;-75
2022/09/24 07:15:39;;;;;;;5.03;4.45;;;11.20;80.20;;;;;;5038985;28;20037;-75
2022/09/24 07:18:05;;;;;;;10.13;4.50;;;11.40;80.20;;;;;;5052321;28;20063;-75
2022/09/24 07:20:32;;;;;;;6.20;4.15;;;11.50;80.00;;;;;;5069669;28;20049;-74
2022/09/24 07:22:57;;;;;;;5.35;3.38;;;11.60;80.00;;;;;;5073718;28;20070;-74
2022/09/24 07:25:23;;;;;;;12.07;3.80;;;11.70;79.80;;;;;;5043506;28;20470;-75
2022/09/24 07:27:49;;;;;;;9.23;4.28;;;11.80;79.60;;;;;;5052541;28;22195;-74
2022/09/24 07:30:14;;;;;;;13.88;3.90;;;11.90;79.50;;;;;;5041696;28;20028;-75
2022/09/24 07:32:40;;;;;;;10.07;4.72;;;12.00;79.30;;;;;;5059334;28;20086;-76
2022/09/24 07:35:06;;;;;;;6.75;5.00;;;12.20;79.20;;;;;;5057922;28;20469;-74
2022/09/24 07:37:32;;;;;;;9.02;5.68;;;12.20;79.00;;;;;;5060419;28;20447;-76
2022/09/24 07:39:58;;;;;;;9.05;6.00;;;12.40;78.90;;;;;;5080474;28;20040;-78
2022/09/24 07:42:24;;;;;;;6.28;4.95;;;12.50;78.80;;;;;;5067355;28;20094;-78
2022/09/24 07:44:49;;;;;;;7.38;6.00;;;12.60;78.50;;;;;;5062065;28;20047;-75
2022/09/24 07:47:15;;;;;;;8.43;4.70;;;12.70;78.40;;;;;;5058378;28;20036;-74
2022/09/24 07:49:41;;;;;;;8.02;4.30;;;12.80;78.20;;;;;;5063614;28;20040;-75
2022/09/24 07:52:07;;;;;;;5.95;4.07;;;13.00;78.00;;;;;;5056795;28;20098;-74
2022/09/24 07:54:32;;;;;;;18.05;4.75;;;13.10;77.70;;;;;;5060937;28;20052;-75
2022/09/24 07:56:58;;;;;;;9.32;4.60;;;13.20;77.50;;;;;;5048953;28;20113;-74
2022/09/24 07:59:24;;;;;;;6.45;4.38;;;13.30;77.10;;;;;;5050413;28;20055;-74
2022/09/24 08:01:49;;;;;;;7.28;4.20;;;13.50;76.90;;;;;;5063885;28;20036;-74
2022/09/24 08:04:16;;;;;;;6.43;4.20;;;13.60;76.50;;;;;;5062119;28;20047;-74
2022/09/24 08:06:42;;;;;;;6.63;4.32;;;13.70;76.40;;;;;;5064675;28;20065;-74
2022/09/24 08:09:07;;;;;;;5.68;4.63;;;13.90;76.20;;;;;;5064261;28;20070;-75
2022/09/24 08:11:33;;;;;;;11.73;4.25;;;14.10;75.90;;;;;;5078639;28;20091;-75
2022/09/24 08:13:59;;;;;;;6.97;4.20;;;14.20;75.60;;;;;;5064409;28;20049;-75
2022/09/24 08:16:25;;;;;;;10.40;4.53;;;14.40;75.30;;;;;;5067096;28;20032;-75
2022/09/24 08:18:51;;;;;;;6.03;4.55;;;14.50;74.90;;;;;;5080167;28;20495;-75
2022/09/24 08:21:17;;;;;;;6.80;5.03;;;14.70;74.70;;;;;;5064043;28;20037;-77
2022/09/24 08:23:42;;;;;;;6.35;4.22;;;14.80;74.30;;;;;;5030887;28;20517;-77
2022/09/24 08:26:09;;;;;;;8.02;4.15;;;14.90;74.10;;;;;;5045916;28;20113;-77
2022/09/24 08:28:35;;;;;;;5.47;4.22;;;15.20;74.00;;;;;;5074592;28;20051;-77
2022/09/24 08:31:02;;;;;;;8.65;3.92;;;15.40;73.60;;;;;;5064467;28;20119;-77
2022/09/24 08:33:28;;;;;;;8.60;4.35;;;15.50;73.20;;;;;;5046622;28;20052;-76
2022/09/24 08:35:54;;;;;;;10.40;4.50;;;15.70;72.90;;;;;;5081464;28;20034;-76
2022/09/24 08:38:22;;;;;;;7.13;4.97;;;15.80;72.40;;;;;;5059068;28;20032;-76
2022/09/24 08:40:56;;;;;;;18.27;13.38;;;15.90;72.10;;;;;;5047095;28;20098;-77
2022/09/24 08:43:53;;;;;;;12.73;8.52;;;16.10;71.90;;;;;;5047112;28;20044;-76
2022/09/24 08:49:30;;;;;;;8.90;6.30;;;16.40;70.80;;;;;;5052838;28;20101;-76
2022/09/24 08:52:01;;;;;;;7.93;6.07;;;16.60;70.80;;;;;;5040193;28;20040;-76
2022/09/24 08:54:27;;;;;;;9.57;5.50;;;16.80;70.40;;;;;;5059546;28;20028;-76
2022/09/24 08:56:54;;;;;;;13.23;5.10;;;17.00;70.10;;;;;;5053228;28;20481;-77
2022/09/24 08:59:29;;;;;;;5.28;3.92;;;17.20;69.70;;;;;;5054826;28;20496;-76
2022/09/24 09:01:54;;;;;;;12.35;6.07;;;17.40;69.10;;;;;;5064049;28;20036;-77
2022/09/24 09:04:27;;;;;;;8.85;4.97;;;17.60;68.90;;;;;;5068177;28;20058;-77
2022/09/24 09:07:16;;;;;;;11.88;5.13;;;17.80;68.50;;;;;;5063274;28;20033;-77
2022/09/24 09:09:49;;;;;;;9.60;7.63;;;18.10;67.40;;;;;;5082337;28;20536;-78
2022/09/24 09:12:26;;;;;;;9.32;5.32;;;18.30;67.40;;;;;;5066106;28;20067;-77
2022/09/24 09:15:09;;;;;;;11.52;9.02;;;18.50;66.80;;;;;;5059625;28;20033;-77
2022/09/24 09:17:48;;;;;;;6.57;5.47;;;18.60;66.60;;;;;;5053486;28;20559;-77
2022/09/24 09:20:19;;;;;;;7.10;4.78;;;18.80;66.00;;;;;;5099904;28;20043;-77
2022/09/24 09:22:47;;;;;;;6.18;4.47;;;19.00;65.50;;;;;;5071631;28;20051;-75
2022/09/24 09:25:24;;;;;;;10.15;5.38;;;19.10;65.20;;;;;;5054781;28;20064;-77
2022/09/24 09:27:52;;;;;;;9.93;5.57;;;19.40;64.10;;;;;;5023784;28;20041;-75
2022/09/24 09:30:19;;;;;;;8.98;4.72;;;19.60;64.40;;;;;;5059145;28;20075;-77
2022/09/24 09:33:09;;;;;;;6.68;5.05;;;19.80;63.90;;;;;;5036759;28;20385;-75
2022/09/24 09:35:37;;;;;;;8.48;4.18;;;20.00;63.30;;;;;;5077959;28;20032;-76
2022/09/24 09:38:24;;;;;;;6.22;4.00;;;20.20;63.00;;;;;;5055023;28;20048;-74
2022/09/24 09:41:14;;;;;;;4.90;3.58;;;20.30;62.40;;;;;;5042248;28;20064;-76
2022/09/24 09:43:40;;;;;;;5.88;4.40;;;20.40;62.20;;;;;;5060869;28;20032;-76
2022/09/24 09:46:09;;;;;;;6.38;3.70;;;20.60;62.10;;;;;;5090363;28;20036;-75
2022/09/24 09:48:46;;;;;;;6.03;4.88;;;20.70;61.80;;;;;;5073193;28;20087;-76
2022/09/24 09:51:19;;;;;;;5.43;4.60;;;20.80;60.80;;;;;;5056072;28;20574;-75
2022/09/24 09:53:57;;;;;;;5.88;4.65;;;20.90;60.60;;;;;;5043823;28;20040;-75
2022/09/24 09:56:46;;;;;;;6.35;5.07;;;21.10;59.80;;;;;;5041629;28;20070;-76
2022/09/24 09:59:11;;;;;;;6.35;4.32;;;21.20;59.40;;;;;;5064155;28;20701;-75
2022/09/24 10:01:41;;;;;;;5.55;4.50;;;21.30;59.90;;;;;;5072787;28;20068;-76
2022/09/24 10:04:47;;;;;;;6.25;4.38;;;21.30;59.70;;;;;;5055372;28;20040;-76
2022/09/24 10:07:14;;;;;;;5.30;3.38;;;21.50;58.70;;;;;;5046003;28;20056;-77
2022/09/24 10:09:41;;;;;;;6.95;4.95;;;21.50;59.20;;;;;;5080711;28;20036;-77
2022/09/24 10:12:21;;;;;;;10.07;5.95;;;21.60;59.00;;;;;;5050146;28;20039;-78
2022/09/24 10:14:56;;;;;;;7.00;6.30;;;21.80;58.30;;;;;;5094179;28;20056;-77
2022/09/24 10:17:21;;;;;;;10.50;6.20;;;21.90;58.30;;;;;;5045543;28;20071;-77
2022/09/24 10:19:49;;;;;;;8.93;5.25;;;22.00;58.50;;;;;;5028842;28;20059;-77
2022/09/24 10:22:21;;;;;;;5.50;4.40;;;22.10;58.20;;;;;;5057922;28;20039;-71
2022/09/24 10:24:46;;;;;;;7.40;4.55;;;22.20;58.10;;;;;;5046763;28;20036;-77
2022/09/24 10:27:13;;;;;;;5.40;4.55;;;22.20;57.90;;;;;;5063607;28;20044;-76
2022/09/24 10:32:24;;;;;;;4.97;3.95;;;22.30;57.40;;;;;;5071701;28;20048;-76
2022/09/24 10:35:05;;;;;;;5.25;4.75;;;22.40;57.30;;;;;;5052877;28;20480;-78
2022/09/24 10:37:31;;;;;;;4.35;3.95;;;22.50;56.50;;;;;;5033939;28;20516;-77
2022/09/24 10:40:01;;;;;;;10.02;4.78;;;22.50;57.00;;;;;;5048068;28;20035;-77
2022/09/24 10:42:28;;;;;;;5.78;4.47;;;22.60;56.50;;;;;;5064049;28;20052;-77
2022/09/24 10:44:54;;;;;;;5.68;4.10;;;22.60;56.50;;;;;;5081911;28;20048;-77
2022/09/24 10:47:25;;;;;;;5.70;4.38;;;22.70;56.20;;;;;;5068359;28;20028;-78
2022/09/24 10:50:16;;;;;;;7.22;4.07;;;22.80;55.80;;;;;;5070080;28;20075;-79
2022/09/24 10:52:51;;;;;;;6.65;4.47;;;22.80;55.40;;;;;;5074932;28;20727;-78
2022/09/24 10:55:36;;;;;;;4.78;4.28;;;23.00;55.60;;;;;;5082884;28;20040;-78
2022/09/24 10:58:27;;;;;;;7.63;4.03;;;23.20;55.00;;;;;;5084502;28;20036;-78
2022/09/24 11:01:14;;;;;;;7.07;3.90;;;23.30;54.50;;;;;;5022388;28;20038;-79
2022/09/24 11:03:52;;;;;;;4.45;3.60;;;23.40;54.90;;;;;;5067527;28;20043;-75
2022/09/24 11:06:37;;;;;;;4.47;3.33;;;23.50;54.80;;;;;;5063282;28;20123;-78
2022/09/24 11:09:50;;;;;;;4.05;2.90;;;23.60;54.40;;;;;;5073644;28;20039;-78
2022/09/24 11:12:29;;;;;;;9.20;5.63;;;23.90;53.90;;;;;;4998947;28;20034;-78
2022/09/24 11:15:13;;;;;;;6.15;4.43;;;24.10;53.80;;;;;;4999491;28;20122;-78
2022/09/24 11:18:18;;;;;;;5.13;4.05;;;24.30;53.20;;;;;;5001399;28;20034;-79
2022/09/24 11:20:54;;;;;;;4.25;3.30;;;24.40;52.60;;;;;;4984356;28;20046;-79
2022/09/24 11:23:26;;;;;;;3.53;3.20;;;24.60;52.80;;;;;;4985504;28;20143;-78
2022/09/24 11:26:21;;;;;;;5.18;3.03;;;24.70;52.60;;;;;;4985487;28;20037;-78
2022/09/24 11:29:08;;;;;;;5.93;3.25;;;24.80;52.10;;;;;;4986447;28;20067;-79
2022/09/24 11:32:18;;;;;;;3.38;3.08;;;24.90;51.10;;;;;;4965128;28;20042;-78
2022/09/24 11:35:02;;;;;;;4.07;3.20;;;25.00;51.30;;;;;;4970318;28;20069;-79
2022/09/24 11:37:46;;;;;;;3.42;2.60;;;25.00;51.30;;;;;;4991629;28;20034;-77
2022/09/24 11:40:25;;;;;;;5.15;4.00;;;25.10;51.60;;;;;;4975422;28;20628;-79
2022/09/24 11:43:23;;;;;;;4.38;2.88;;;25.20;51.30;;;;;;4980962;28;20037;-78
2022/09/24 11:46:10;;;;;;;4.43;2.67;;;25.20;50.10;;;;;;4997813;28;20433;-78
2022/09/24 11:49:01;;;;;;;4.00;2.60;;;25.30;49.90;;;;;;5069893;28;20043;-78
2022/09/24 11:51:40;;;;;;;2.58;2.10;;;25.30;49.00;;;;;;5054769;28;20036;-78
2022/09/24 11:54:13;;;;;;;3.72;2.47;;;25.40;49.60;;;;;;5053968;28;20086;-78
2022/09/24 11:56:46;;;;;;;2.60;2.22;;;25.30;49.50;;;;;;5056388;28;20040;-78
2022/09/24 11:59:16;;;;;;;4.93;2.47;;;25.30;48.90;;;;;;5073131;28;20039;-79
2022/09/24 12:01:49;;;;;;;2.70;2.50;;;25.30;48.90;;;;;;5052276;28;20205;-78
2022/09/24 12:04:18;;;;;;;2.05;1.77;;;25.30;48.60;;;;;;5056492;28;20136;-78
2022/09/24 12:06:54;;;;;;;5.50;2.22;;;25.30;48.60;;;;;;5026055;28;20517;-79
2022/09/24 12:09:32;;;;;;;4.70;2.38;;;25.30;48.40;;;;;;5057589;28;20039;-79
2022/09/24 12:12:08;;;;;;;4.55;2.25;;;25.40;47.70;;;;;;5048206;28;20044;-78
2022/09/24 12:15:11;;;;;;;3.13;2.00;;;25.40;48.00;;;;;;5036512;28;20471;-77
2022/09/24 12:17:56;;;;;;;3.55;2.97;;;25.50;47.20;;;;;;5054384;28;20040;-79
2022/09/24 12:20:31;;;;;;;2.97;2.63;;;25.50;47.00;;;;;;5043185;28;20035;-78
2022/09/24 12:23:00;;;;;;;3.70;2.53;;;25.60;47.30;;;;;;5092479;28;20032;-78
2022/09/24 12:25:28;;;;;;;3.35;2.65;;;25.60;47.70;;;;;;5046425;28;20595;-79
2022/09/24 12:27:54;;;;;;;2.65;2.05;;;25.60;47.40;;;;;;5071868;28;20173;-79
2022/09/24 12:33:28;;;;;;;2.10;1.80;;;25.60;46.80;;;;;;5060348;28;20062;-79
2022/09/24 12:36:13;;;;;;;5.57;2.78;;;25.70;47.20;;;;;;5088290;28;20029;-78
2022/09/24 12:39:01;;;;;;;2.50;2.22;;;25.70;46.30;;;;;;5044387;28;20032;-78
2022/09/24 12:41:34;;;;;;;7.70;3.17;;;25.90;46.30;;;;;;5055791;28;20405;-78
2022/09/24 12:44:09;;;;;;;3.88;2.05;;;26.00;46.90;;;;;;5076058;28;20070;-78
2022/09/24 12:46:43;;;;;;;3.85;2.35;;;26.20;46.10;;;;;;5055775;28;20182;-78
2022/09/24 12:49:25;;;;;;;3.85;2.22;;;26.30;46.00;;;;;;5044440;28;20124;-78
2022/09/24 12:51:51;;;;;;;2.63;2.20;;;26.40;46.00;;;;;;5057092;28;20047;-78
2022/09/24 12:54:34;;;;;;;4.70;2.60;;;26.50;46.00;;;;;;5028383;28;20560;-78
2022/09/24 12:57:12;;;;;;;2.88;2.50;;;26.50;44.70;;;;;;5053724;28;20059;-78
2022/09/24 12:59:53;;;;;;;4.07;2.45;;;26.50;44.80;;;;;;5026239;28;20059;-78
2022/09/24 13:02:26;;;;;;;5.78;1.85;;;26.50;44.30;;;;;;5034272;28;20033;-79
2022/09/24 13:05:01;;;;;;;3.95;1.85;;;26.40;44.90;;;;;;5071456;28;20040;-76
2022/09/24 13:07:32;;;;;;;2.13;1.55;;;26.40;44.40;;;;;;5064637;28;20031;-77
2022/09/24 13:10:14;;;;;;;2.67;1.60;;;26.40;44.60;;;;;;5072261;28;20169;-76
2022/09/24 13:12:40;;;;;;;3.53;1.75;;;26.40;44.20;;;;;;5055379;28;20123;-77